Portada
METAR-TAF:

METAR-TAF

Aeropuertos :

Aeropuerto Internacional de Doha

Doha, Qatar

latitud: 25-15-40N, longitud: 051-33-54E, altitud: 11 m

Observación

El informe se hizo hace 22 minutos, a las 12:00 UTC
Viento 8 kt del norte-noreste, variando entre norte y este-noreste
Temperatura 30°C
Humedad 31%
Presión 1012 hPa
Visibilidad 10 km o más
sin nubes por debajo de 1500 m y sin presencia de cumulonimbus.

METAR: OTBD 041200Z AUTO 03008KT 350V060 CAVOK 30/11 Q1012 NOSIG

Hora: 15:22 (12:22 UTC)

Pronóstico

El informe se hizo hace 1 hora y 21 minutos, a las 11:01 UTC
Pronóstico válido del 04 a las 12 UTC al 05 a las 18 UTC
Viento 12 kt del norte
Visibilidad 10 km o más
sin nubes por debajo de 1500 m y sin presencia de cumulonimbus.

TAF: OTBD 041101Z 0412/0518 36012KT CAVOK

Observaciones y pronósticos meteorológicos de más de 4000 aeropuertos (mensajes METAR y TAF).

Los puntos amarillos y rojos representan las estaciones disponibles.

Ponga el ratón en el punto deseado para ver el nombre de la estación.

Haga clic para ver las observaciones y los pronósticos meteorológicos.

Para cambiar el mapa : haga clic en los botones verdes con una cruz de color negro para hacer un zoom, en el botón verde con un guión para alejar o en las flechas verdes para mapas adyacentes.


METAR-TAF: